createdAt,value
2022-12-19T00:01:26.769Z,100022.69
2022-12-19T00:03:57.146Z,100022.69
2022-12-19T00:06:27.147Z,100027.78
2022-12-19T00:08:55.836Z,100030.38
2022-12-19T00:11:28.196Z,100022.63
2022-12-19T00:13:57.466Z,100014.00
2022-12-19T00:16:29.870Z,100011.44
2022-12-19T00:19:01.562Z,100004.53
2022-12-19T00:21:34.804Z,99990.72
2022-12-19T00:24:04.785Z,100001.06
2022-12-19T00:26:51.903Z,100007.06
2022-12-19T00:29:22.015Z,100008.81
2022-12-19T00:31:51.165Z,100014.91
2022-12-19T00:34:19.775Z,100005.44
2022-12-19T00:36:47.965Z,100000.22
2022-12-19T00:39:16.376Z,100000.25
2022-12-19T00:41:44.869Z,99995.88
2022-12-19T00:44:15.472Z,100003.69
2022-12-19T00:46:46.196Z,100006.28
2022-12-19T00:49:23.800Z,100015.78
2022-12-19T00:51:52.256Z,100014.06
2022-12-19T00:54:20.546Z,100014.03
2022-12-19T00:56:49.135Z,100016.63
2022-12-19T00:59:26.548Z,100020.13
2022-12-19T01:01:55.403Z,100024.44
2022-12-19T01:04:28.482Z,100022.72
2022-12-19T01:07:01.137Z,100017.44
2022-12-19T01:09:32.388Z,100020.13
2022-12-19T01:12:18.081Z,100016.63
2022-12-19T01:14:48.310Z,100011.44
2022-12-19T01:17:18.029Z,100013.16
2022-12-19T01:19:48.230Z,100026.13
2022-12-19T01:22:16.360Z,100028.75
2022-12-19T01:24:44.874Z,100025.25
2022-12-19T01:27:13.372Z,100031.31
2022-12-19T01:29:52.298Z,100028.78
2022-12-19T01:32:23.429Z,100011.47
2022-12-19T01:34:51.810Z,100013.19
2022-12-19T01:37:20.603Z,100005.38
2022-12-19T01:39:49.463Z,100003.75
2022-12-19T01:42:23.212Z,100009.78
2022-12-19T01:45:34.082Z,100005.44
2022-12-19T01:48:15.494Z,100004.56
2022-12-19T01:51:00.667Z,100008.88
2022-12-19T01:53:48.214Z,100013.22
2022-12-19T01:56:19.393Z,100004.56
2022-12-19T01:58:49.090Z,99994.22
2022-12-19T02:01:20.396Z,99982.97
2022-12-19T02:03:51.768Z,99982.94
2022-12-19T02:06:21.244Z,99976.91
2022-12-19T02:08:51.408Z,99980.34
2022-12-19T02:11:19.876Z,99987.28
2022-12-19T02:13:50.128Z,99976.06
2022-12-19T02:16:31.144Z,99973.47
2022-12-19T02:19:16.808Z,99964.84
2022-12-19T02:21:57.121Z,99970.00
2022-12-19T02:25:01.304Z,99976.94
2022-12-19T02:28:27.371Z,99969.16
2022-12-19T02:31:16.361Z,99968.25
2022-12-19T02:33:56.204Z,99962.22
2022-12-19T02:36:32.393Z,99954.44
2022-12-19T02:39:10.218Z,99955.31
2022-12-19T02:41:44.725Z,99947.53
2022-12-19T02:44:19.467Z,99941.50
2022-12-19T02:46:52.137Z,99936.31
2022-12-19T02:49:23.311Z,99927.66
2022-12-19T02:51:58.974Z,99926.81
2022-12-19T02:54:28.424Z,99917.28
2022-12-19T02:57:02.228Z,99925.06
2022-12-19T02:59:45.367Z,99918.16
2022-12-19T03:02:28.883Z,99915.56
2022-12-19T03:05:02.060Z,99916.44
2022-12-19T03:07:38.868Z,99912.13
2022-12-19T03:10:14.439Z,99919.03
2022-12-19T03:12:51.662Z,99921.63
2022-12-19T03:15:24.969Z,99918.16
2022-12-19T03:18:03.735Z,99919.03
2022-12-19T03:20:45.329Z,99926.81
2022-12-19T03:23:15.037Z,99914.72
2022-12-19T03:25:47.408Z,99894.81
2022-12-19T03:28:22.753Z,99917.31
2022-12-19T03:30:52.503Z,99916.44
2022-12-19T03:33:24.837Z,99905.19
2022-12-19T03:35:55.859Z,99909.50
2022-12-19T03:38:25.369Z,99903.44
2022-12-19T03:40:56.235Z,99904.34
2022-12-19T03:43:26.094Z,99907.78
2022-12-19T03:45:59.752Z,99905.19
2022-12-19T03:48:35.309Z,99911.25
2022-12-19T03:51:12.634Z,99910.38
2022-12-19T03:53:50.216Z,99904.34
2022-12-19T03:56:27.428Z,99900.88
2022-12-19T03:59:02.006Z,99892.22
2022-12-19T04:01:33.530Z,99897.41
2022-12-19T04:04:05.058Z,99888.75
2022-12-19T04:06:35.783Z,99892.22
2022-12-19T04:09:05.591Z,99892.22
2022-12-19T04:11:39.814Z,99894.81
2022-12-19T04:14:12.077Z,99888.75
2022-12-19T04:16:45.737Z,99893.06
2022-12-19T04:19:22.001Z,99880.97
2022-12-19T04:21:56.602Z,99870.59
2022-12-19T04:24:30.744Z,99871.47
2022-12-19T04:27:03.454Z,99864.53
2022-12-19T04:29:36.000Z,99853.31
2022-12-19T04:32:07.627Z,99844.66
2022-12-19T04:34:42.724Z,99852.44
2022-12-19T04:37:12.806Z,99851.56
2022-12-19T04:39:41.307Z,99854.19
2022-12-19T04:42:09.843Z,99858.47
2022-12-19T04:44:39.254Z,99861.09
2022-12-19T04:47:08.932Z,99846.38
2022-12-19T04:49:39.023Z,99859.34
2022-12-19T04:52:07.960Z,99849.84
2022-12-19T04:54:36.444Z,99850.69
2022-12-19T04:57:05.824Z,99841.16
2022-12-19T04:59:34.691Z,99854.13
2022-12-19T05:02:02.908Z,99857.56
2022-12-19T05:04:31.473Z,99864.47
2022-12-19T05:07:02.281Z,99861.91
2022-12-19T05:09:31.435Z,99855.00
2022-12-19T05:11:59.793Z,99848.06
2022-12-19T05:14:29.092Z,99857.53
2022-12-19T05:17:01.469Z,99850.63
2022-12-19T05:19:30.576Z,99850.63
2022-12-19T05:22:01.216Z,99838.50
2022-12-19T05:24:29.797Z,99834.22
2022-12-19T05:26:57.982Z,99833.34
2022-12-19T05:29:26.881Z,99844.59
2022-12-19T05:31:55.473Z,99837.69
2022-12-19T05:34:25.284Z,99840.25
2022-12-19T05:36:56.427Z,99848.06
2022-12-19T05:39:26.671Z,99840.25
2022-12-19T05:41:55.436Z,99848.91
2022-12-19T05:44:24.221Z,99831.63
2022-12-19T05:46:54.612Z,99846.34
2022-12-19T05:49:23.177Z,99846.31
2022-12-19T05:51:53.126Z,99854.13
2022-12-19T05:54:21.544Z,99856.69
2022-12-19T05:56:51.777Z,99855.81
2022-12-19T05:59:21.372Z,99851.50
2022-12-19T06:01:50.685Z,99848.84
2022-12-19T06:04:20.054Z,99854.94
2022-12-19T06:06:48.255Z,99862.72
2022-12-19T06:09:17.038Z,99854.06
2022-12-19T06:11:45.762Z,99860.13
2022-12-19T06:14:16.110Z,99860.97
2022-12-19T06:16:44.771Z,99862.69
2022-12-19T06:19:13.329Z,99867.03
2022-12-19T06:21:48.117Z,99864.44
2022-12-19T06:24:19.404Z,99880.00
2022-12-19T06:26:47.680Z,99870.44
2022-12-19T06:32:01.497Z,99862.69
2022-12-19T06:35:02.053Z,99858.31
2022-12-19T06:37:20.593Z,99848.78
2022-12-19T06:39:49.102Z,99861.78
2022-12-19T06:42:25.769Z,99871.31
2022-12-19T06:44:57.210Z,99875.66
2022-12-19T06:47:26.599Z,99883.44
2022-12-19T06:49:55.215Z,99873.03
2022-12-19T06:52:23.760Z,99866.97
2022-12-19T06:54:52.697Z,99862.66
2022-12-19T06:57:22.577Z,99875.63
2022-12-19T06:59:50.822Z,99863.47
2022-12-19T07:02:29.687Z,99862.66
2022-12-19T07:05:03.506Z,99855.69
2022-12-19T07:07:32.414Z,99863.47
2022-12-19T07:10:03.034Z,99863.44
2022-12-19T07:12:33.653Z,99871.25
2022-12-19T07:15:02.105Z,99871.28
2022-12-19T07:17:33.595Z,99885.13
2022-12-19T07:20:03.910Z,99882.53
2022-12-19T07:22:35.797Z,99884.22
2022-12-19T07:25:06.327Z,99880.78
2022-12-19T07:27:38.435Z,99897.22
2022-12-19T07:30:08.220Z,99881.66
2022-12-19T07:32:40.027Z,99865.19
2022-12-19T07:35:09.267Z,99873.00
2022-12-19T07:37:37.990Z,99872.13
2022-12-19T07:40:07.545Z,99863.47
2022-12-19T07:42:36.559Z,99868.63
2022-12-19T07:45:04.904Z,99867.75
2022-12-19T07:47:33.854Z,99873.88
2022-12-19T07:50:08.085Z,99868.63
2022-12-19T07:52:37.116Z,99866.88
2022-12-19T07:55:06.369Z,99878.97
2022-12-19T07:57:36.251Z,99885.94
2022-12-19T08:00:07.068Z,99886.84
2022-12-19T08:02:36.911Z,99892.81
2022-12-19T08:05:12.912Z,99890.19
2022-12-19T08:07:41.903Z,99893.66
2022-12-19T08:10:13.136Z,99891.94
2022-12-19T08:12:41.547Z,99898.00
2022-12-19T08:15:12.125Z,99903.16
2022-12-19T08:17:41.258Z,99893.69
2022-12-19T08:20:17.603Z,99892.75
2022-12-19T08:22:46.259Z,99895.31
2022-12-19T08:25:15.203Z,99906.56
2022-12-19T08:27:46.444Z,99891.84
2022-12-19T08:30:15.942Z,99885.75
2022-12-19T08:32:45.390Z,99890.13
2022-12-19T08:35:15.703Z,99889.22
2022-12-19T08:37:44.753Z,99892.75
2022-12-19T08:40:15.338Z,99888.38
2022-12-19T08:42:46.398Z,99884.88
2022-12-19T08:45:17.449Z,99891.78
2022-12-19T08:47:46.412Z,99890.06
2022-12-19T08:50:17.308Z,99879.56
2022-12-19T08:52:47.861Z,99877.91
2022-12-19T08:55:17.488Z,99869.22
2022-12-19T08:57:46.436Z,99875.22
2022-12-19T09:00:16.524Z,99870.03
2022-12-19T09:02:46.210Z,99869.94
2022-12-19T09:06:02.453Z,99872.56
2022-12-19T09:08:06.916Z,99868.16
2022-12-19T09:10:37.948Z,99873.31
2022-12-19T09:13:09.223Z,99876.75
2022-12-19T09:15:37.890Z,99885.44
2022-12-19T09:18:08.438Z,99883.72
2022-12-19T09:20:38.816Z,99885.44
2022-12-19T09:23:09.014Z,99891.44
2022-12-19T09:25:37.168Z,99883.59
2022-12-19T09:30:59.057Z,99895.63
2022-12-19T09:33:27.595Z,99891.34
2022-12-19T09:35:58.476Z,99891.34
2022-12-19T09:38:29.827Z,99880.06
2022-12-19T09:41:29.323Z,99886.94
2022-12-19T09:44:10.933Z,99868.75
2022-12-19T09:46:49.073Z,99857.47
2022-12-19T09:49:23.958Z,99852.31
2022-12-19T09:52:00.801Z,99840.06
2022-12-19T09:54:37.877Z,99846.09
2022-12-19T09:57:12.753Z,99842.69
2022-12-19T09:59:49.693Z,99831.50
2022-12-19T10:02:38.937Z,99828.75
2022-12-19T10:05:33.771Z,99840.03
2022-12-19T10:08:19.103Z,99848.66
2022-12-19T10:12:36.240Z,99842.59
2022-12-19T10:14:07.720Z,99847.78
2022-12-19T10:17:22.140Z,99851.25
2022-12-19T10:19:47.626Z,99849.44
2022-12-19T10:22:25.606Z,99835.53
2022-12-19T10:25:27.272Z,99837.22
2022-12-19T10:28:04.166Z,99841.53
2022-12-19T10:30:38.643Z,99832.88
2022-12-19T10:33:20.534Z,99817.19
2022-12-19T10:35:57.444Z,99824.25
2022-12-19T10:38:51.107Z,99811.22
2022-12-19T10:41:25.653Z,99819.84
2022-12-19T10:44:02.646Z,99824.03
2022-12-19T10:46:39.898Z,99833.66
2022-12-19T10:49:17.215Z,99824.91
2022-12-19T10:51:59.854Z,99821.34
2022-12-19T10:54:41.157Z,99819.63
2022-12-19T10:57:27.084Z,99823.94
2022-12-19T11:00:08.257Z,99816.13
2022-12-19T11:02:44.895Z,99816.13
2022-12-19T11:05:26.630Z,99817.00
2022-12-19T11:08:03.520Z,99803.00
2022-12-19T11:11:48.634Z,99805.56
2022-12-19T11:19:05.445Z,99802.09
2022-12-19T11:22:28.626Z,99792.59
2022-12-19T11:29:30.141Z,99791.66
2022-12-19T11:29:32.463Z,99791.56
2022-12-19T11:29:41.659Z,99796.81
2022-12-19T11:30:46.938Z,99785.66
2022-12-19T11:34:15.559Z,99772.59
2022-12-19T11:36:51.327Z,99768.97
2022-12-19T11:39:27.606Z,99755.81
2022-12-19T11:42:03.519Z,99754.13
2022-12-19T11:44:38.428Z,99750.59
2022-12-19T11:47:21.013Z,99743.66
2022-12-19T11:49:56.517Z,99760.91
2022-12-19T11:53:03.308Z,99752.16
2022-12-19T11:55:33.521Z,99750.44
2022-12-19T11:58:05.333Z,99749.53
2022-12-19T12:00:36.187Z,99758.13
2022-12-19T12:04:00.384Z,99740.75
2022-12-19T12:06:39.711Z,99745.09
2022-12-19T12:13:06.662Z,99741.66
2022-12-19T12:21:09.239Z,99738.25
2022-12-19T12:22:14.676Z,99744.44
2022-12-19T12:31:15.524Z,99739.88
2022-12-19T12:31:23.616Z,99735.63
2022-12-19T12:31:43.659Z,99733.81
2022-12-19T12:32:06.047Z,99734.69
2022-12-19T12:35:07.334Z,99730.31
2022-12-19T12:35:21.480Z,99736.34
2022-12-19T12:39:33.360Z,99723.16
2022-12-19T12:42:14.564Z,99719.81
2022-12-19T12:44:46.171Z,99732.88
2022-12-19T12:47:22.030Z,99732.78
2022-12-19T12:49:55.838Z,99728.38
2022-12-19T12:52:31.815Z,99733.78
2022-12-19T12:55:04.934Z,99722.34
2022-12-19T12:57:39.535Z,99710.25
2022-12-19T13:00:20.753Z,99721.56
2022-12-19T13:02:54.281Z,99721.63
2022-12-19T13:05:42.859Z,99739.78
2022-12-19T13:08:35.873Z,99730.22
2022-12-19T13:11:08.347Z,99725.78
2022-12-19T13:13:55.035Z,99724.97
2022-12-19T13:16:54.609Z,99719.69
2022-12-19T13:19:28.897Z,99725.72
2022-12-19T13:22:22.353Z,99709.25
2022-12-19T13:24:53.030Z,99719.69
2022-12-19T13:27:51.503Z,99717.06
2022-12-19T13:30:22.302Z,99714.44
2022-12-19T13:33:17.067Z,99717.00
2022-12-19T13:39:48.279Z,99720.44
2022-12-19T13:40:00.635Z,99719.59
2022-12-19T13:42:00.636Z,99705.69
2022-12-19T13:44:43.901Z,99714.31
2022-12-19T13:47:20.271Z,99716.72
2022-12-19T13:49:52.571Z,99718.63
2022-12-19T13:52:21.212Z,99717.78
2022-12-19T13:54:53.336Z,99723.78
2022-12-19T13:57:27.428Z,99722.94
2022-12-19T14:00:04.493Z,99728.06
2022-12-19T14:02:44.018Z,99735.16
2022-12-19T14:06:14.658Z,99733.34
2022-12-19T14:08:19.613Z,99726.47
2022-12-19T14:11:43.164Z,99724.81
2022-12-19T14:14:12.623Z,99713.22
2022-12-19T14:16:45.820Z,99698.56
2022-12-19T14:19:24.033Z,99699.38
2022-12-19T14:22:09.664Z,99706.19
2022-12-19T14:24:42.067Z,99714.94
2022-12-19T14:28:17.937Z,99722.72
2022-12-19T14:30:30.109Z,99727.09
2022-12-19T14:33:43.818Z,99723.75
2022-12-19T14:36:10.440Z,99736.69
2022-12-19T14:39:25.721Z,99730.59
2022-12-19T14:42:02.629Z,99748.78
2022-12-19T14:52:25.658Z,99757.34
2022-12-19T14:54:06.043Z,99734.75
2022-12-19T14:54:11.922Z,99750.34
2022-12-19T14:54:26.483Z,99726.91
2022-12-19T14:59:04.004Z,99720.13
2022-12-19T15:01:36.459Z,99719.06
2022-12-19T15:04:50.456Z,99725.09
2022-12-19T15:07:08.389Z,99739.06
2022-12-19T15:11:07.925Z,99750.34
2022-12-19T15:14:47.324Z,99745.13
2022-12-19T15:16:05.679Z,99739.06
2022-12-19T15:18:41.493Z,99723.41
2022-12-19T15:21:14.065Z,99714.66
2022-12-19T15:23:45.996Z,99719.84
2022-12-19T15:26:18.021Z,99720.78
2022-12-19T15:28:50.560Z,99710.38
2022-12-19T15:31:29.273Z,99701.56
2022-12-19T15:36:46.767Z,99701.72
2022-12-19T15:39:25.001Z,99702.91
2022-12-19T15:41:58.614Z,99698.34
2022-12-19T15:44:34.150Z,99698.47
2022-12-19T15:47:07.186Z,99703.59
2022-12-19T15:49:37.180Z,99706.25
2022-12-19T15:52:14.916Z,99706.38
2022-12-19T15:54:50.014Z,99709.03
2022-12-19T15:57:24.243Z,99706.50
2022-12-19T15:59:56.598Z,99703.88
2022-12-19T16:02:42.797Z,99689.19
2022-12-19T16:05:17.943Z,99693.53
2022-12-19T16:07:46.819Z,99697.84
2022-12-19T16:10:19.066Z,99701.34
2022-12-19T16:12:51.989Z,99702.22
2022-12-19T16:15:26.241Z,99688.28
2022-12-19T16:17:55.524Z,99677.81
2022-12-19T16:20:26.921Z,99680.41
2022-12-19T16:22:56.568Z,99670.94
2022-12-19T16:25:32.037Z,99648.34
2022-12-19T16:28:02.306Z,99658.81
2022-12-19T16:30:33.236Z,99654.63
2022-12-19T16:33:03.600Z,99647.59
2022-12-19T16:36:03.180Z,99654.63
2022-12-19T16:38:21.047Z,99646.06
2022-12-19T16:40:53.238Z,99648.69
2022-12-19T16:43:29.609Z,99646.84
2022-12-19T16:46:01.425Z,99642.34
2022-12-19T16:48:31.484Z,99647.56
2022-12-19T16:51:00.428Z,99653.56
2022-12-19T16:53:29.550Z,99645.03
2022-12-19T16:56:01.604Z,99642.38
2022-12-19T16:58:38.280Z,99648.47
2022-12-19T17:01:11.939Z,99652.88
2022-12-19T17:03:45.932Z,99651.91
2022-12-19T17:06:17.678Z,99641.31
2022-12-19T17:08:46.886Z,99648.53
2022-12-19T17:11:19.347Z,99671.78
2022-12-19T17:13:51.671Z,99667.44
2022-12-19T17:16:20.482Z,99674.47
2022-12-19T17:18:50.155Z,99660.44
2022-12-19T17:21:21.594Z,99652.56
2022-12-19T17:23:52.618Z,99655.28
2022-12-19T17:26:22.785Z,99659.44
2022-12-19T17:28:51.176Z,99641.16
2022-12-19T17:31:25.736Z,99633.31
2022-12-19T17:33:58.356Z,99627.38
2022-12-19T17:36:36.632Z,99628.06
2022-12-19T17:39:07.750Z,99623.88
2022-12-19T17:41:41.745Z,99618.69
2022-12-19T17:44:10.119Z,99638.69
2022-12-19T17:46:39.893Z,99621.13
2022-12-19T17:49:08.592Z,99626.31
2022-12-19T17:51:37.427Z,99621.94
2022-12-19T17:54:06.057Z,99628.84
2022-12-19T17:56:34.741Z,99635.88
2022-12-19T17:59:05.960Z,99642.78
2022-12-19T18:01:38.621Z,99644.31
2022-12-19T18:04:07.185Z,99636.81
2022-12-19T18:06:36.373Z,99634.06
2022-12-19T18:09:05.015Z,99638.56
2022-12-19T18:11:41.522Z,99623.78
2022-12-19T18:14:12.027Z,99622.06
2022-12-19T18:16:41.233Z,99615.09
2022-12-19T18:19:18.873Z,99615.06
2022-12-19T18:21:50.754Z,99615.72
2022-12-19T18:24:20.081Z,99606.34
2022-12-19T18:27:06.299Z,99605.50
2022-12-19T18:29:36.225Z,99618.56
2022-12-19T18:32:04.725Z,99627.19
2022-12-19T18:34:36.156Z,99629.88
2022-12-19T18:37:05.668Z,99615.81
2022-12-19T18:39:34.293Z,99607.13
2022-12-19T18:42:02.943Z,99609.59
2022-12-19T18:44:31.856Z,99618.34
2022-12-19T18:47:01.841Z,99608.66
2022-12-19T18:49:34.861Z,99614.75
2022-12-19T18:52:12.604Z,99616.41
2022-12-19T18:54:44.210Z,99615.69
2022-12-19T18:57:12.671Z,99615.59
2022-12-19T18:59:45.646Z,99620.84
2022-12-19T19:02:27.590Z,99610.41
2022-12-19T19:04:58.825Z,99614.63
2022-12-19T19:07:27.534Z,99618.09
2022-12-19T19:09:56.185Z,99633.88
2022-12-19T19:12:25.020Z,99615.69
2022-12-19T19:14:53.727Z,99605.94
2022-12-19T19:17:31.563Z,99604.97
2022-12-19T19:20:00.447Z,99604.03
2022-12-19T19:22:29.115Z,99612.69
2022-12-19T19:24:59.764Z,99615.34
2022-12-19T19:27:28.500Z,99635.16
2022-12-19T19:29:57.501Z,99628.16
2022-12-19T19:32:28.062Z,99638.47
2022-12-19T19:34:57.132Z,99631.44
2022-12-19T19:37:25.811Z,99639.22
2022-12-19T19:39:54.366Z,99649.56
2022-12-19T19:42:23.056Z,99635.66
2022-12-19T19:44:52.637Z,99639.19
2022-12-19T19:47:28.548Z,99631.19
2022-12-19T19:49:57.068Z,99613.91
2022-12-19T19:52:26.499Z,99619.16
2022-12-19T19:54:54.832Z,99619.97
2022-12-19T19:57:23.533Z,99624.91
2022-12-19T19:59:52.363Z,99622.41
2022-12-19T20:02:23.333Z,99634.56
2022-12-19T20:04:53.685Z,99622.22
2022-12-19T20:07:27.277Z,99615.19
2022-12-19T20:09:57.070Z,99626.53
2022-12-19T20:12:25.464Z,99630.00
2022-12-19T20:14:53.818Z,99629.84
2022-12-19T20:17:22.473Z,99638.63
2022-12-19T20:19:52.827Z,99627.31
2022-12-19T20:22:22.904Z,99642.84
2022-12-19T20:24:51.863Z,99643.88
2022-12-19T20:27:20.351Z,99644.03
2022-12-19T20:29:50.462Z,99631.75
2022-12-19T20:32:19.205Z,99647.31
2022-12-19T20:34:47.675Z,99658.63
2022-12-19T20:37:16.758Z,99640.16
2022-12-19T20:39:46.643Z,99649.06
2022-12-19T20:42:15.205Z,99638.75
2022-12-19T20:44:47.496Z,99641.22
2022-12-19T20:47:15.984Z,99648.94
2022-12-19T20:49:45.345Z,99643.78
2022-12-19T20:52:14.044Z,99664.75
2022-12-19T20:54:42.421Z,99669.81
2022-12-19T20:57:12.608Z,99674.97
2022-12-19T20:59:40.979Z,99669.78
2022-12-19T21:02:09.420Z,99671.38
2022-12-19T21:04:38.371Z,99662.59
2022-12-19T21:07:07.065Z,99670.59
2022-12-19T21:09:35.370Z,99669.69
2022-12-19T21:12:04.324Z,99671.50
2022-12-19T21:14:34.710Z,99661.81
2022-12-19T21:17:03.423Z,99669.53
2022-12-19T21:19:31.961Z,99662.56
2022-12-19T21:22:00.343Z,99660.84
2022-12-19T21:24:33.197Z,99664.25
2022-12-19T21:27:02.631Z,99651.25
2022-12-19T21:29:33.490Z,99650.44
2022-12-19T21:32:03.567Z,99648.53
2022-12-19T21:34:31.933Z,99661.22
2022-12-19T21:37:03.443Z,99661.09
2022-12-19T21:39:33.254Z,99656.78
2022-12-19T21:42:01.896Z,99648.72
2022-12-19T21:44:30.447Z,99651.25
2022-12-19T21:47:00.469Z,99649.41
2022-12-19T21:49:30.588Z,99652.81
2022-12-19T21:51:58.923Z,99657.94
2022-12-19T21:54:27.442Z,99650.41
2022-12-19T21:56:55.908Z,99652.00
2022-12-19T21:59:24.085Z,99656.28
2022-12-19T22:01:52.768Z,99656.06
2022-12-19T22:04:25.243Z,99650.19
2022-12-19T22:06:55.717Z,99647.53
2022-12-19T22:09:24.979Z,99634.25
2022-12-19T22:11:53.782Z,99644.06
2022-12-19T22:14:23.670Z,99642.22
2022-12-19T22:16:54.020Z,99636.84
2022-12-19T22:19:22.453Z,99627.13
2022-12-19T22:21:50.949Z,99632.56
2022-12-19T22:24:22.209Z,99616.88
2022-12-19T22:26:53.418Z,99614.91
2022-12-19T22:29:22.188Z,99610.41
2022-12-19T22:31:51.033Z,99605.31
2022-12-19T22:34:21.697Z,99611.44
2022-12-19T22:36:50.811Z,99612.25
2022-12-19T22:39:22.763Z,99599.25
2022-12-19T22:41:53.344Z,99602.59
2022-12-19T22:44:24.057Z,99614.84
2022-12-19T22:46:53.647Z,99619.16
2022-12-19T22:49:22.190Z,99612.88
2022-12-19T22:51:50.474Z,99610.31
2022-12-19T22:54:18.889Z,99613.78
2022-12-19T22:56:51.797Z,99608.50
2022-12-19T22:59:20.944Z,99624.13
2022-12-19T23:01:49.700Z,99611.09
2022-12-19T23:04:21.499Z,99613.78
2022-12-19T23:06:50.244Z,99613.75
2022-12-19T23:09:19.847Z,99612.13
2022-12-19T23:11:52.614Z,99613.78
2022-12-19T23:14:21.824Z,99614.59
2022-12-19T23:16:51.026Z,99611.91
2022-12-19T23:19:19.916Z,99611.16
2022-12-19T23:21:50.272Z,99613.06
2022-12-19T23:24:19.042Z,99611.38
2022-12-19T23:26:47.708Z,99612.88
2022-12-19T23:29:18.423Z,99602.56
2022-12-19T23:31:50.727Z,99600.59
2022-12-19T23:34:19.643Z,99596.13
2022-12-19T23:39:38.820Z,99589.31
2022-12-19T23:42:07.642Z,99591.19
2022-12-19T23:44:37.633Z,99591.03
2022-12-19T23:47:06.016Z,99586.88
2022-12-19T23:49:34.905Z,99588.28
2022-12-19T23:52:03.525Z,99600.50
2022-12-19T23:54:33.719Z,99593.50
2022-12-19T23:57:02.165Z,99588.84
2022-12-19T23:59:32.976Z,99585.25
